Time;durP1;ratioP1;P1;durP2;ratioP2;P2;SDS_P1;SDS_P2;PMS_P1;PMS_P2;Temp;Humidity;BMP_temperature;BMP_pressure;BME280_temperature;BME280_humidity;BME280_pressure;Samples;Min_cycle;Max_cycle;Signal;HPM_P1;HPM_P2
2022/08/31 00:05:22;;;;;;;0.80;0.60;;;;;;;;;;5055084;28;20148;-79
2022/08/31 00:07:48;;;;;;;6.47;0.98;;;;;;;;;;5014218;28;20458;-79
2022/08/31 00:10:16;;;;;;;2.92;1.25;;;;;;;;;;5013904;28;20041;-79
2022/08/31 00:12:44;;;;;;;4.78;1.13;;;;;;;;;;5025914;28;20094;-79
2022/08/31 00:15:12;;;;;;;2.60;0.63;;;;;;;;;;5025881;28;20487;-79
2022/08/31 00:17:38;;;;;;;0.77;0.50;;;;;;;;;;5021359;28;20045;-79
2022/08/31 00:20:06;;;;;;;3.72;1.48;;;;;;;;;;5013991;28;20064;-79
2022/08/31 00:22:32;;;;;;;2.13;0.90;;;;;;;;;;5030468;28;20037;-79
2022/08/31 00:24:58;;;;;;;1.30;0.80;;;;;;;;;;5023703;28;20421;-79
2022/08/31 00:27:24;;;;;;;0.82;0.60;;;;;;;;;;5039706;28;20083;-79
2022/08/31 00:29:50;;;;;;;1.63;0.80;;;;;;;;;;5013387;28;20759;-79
2022/08/31 00:32:16;;;;;;;5.68;0.77;;;;;;;;;;5022986;28;20076;-79
2022/08/31 00:34:42;;;;;;;1.25;0.60;;;;;;;;;;5036919;28;20048;-79
2022/08/31 00:37:08;;;;;;;3.40;0.68;;;;;;;;;;5019746;28;20038;-79
2022/08/31 00:39:35;;;;;;;1.40;0.70;;;;;;;;;;5010957;28;20119;-79
2022/08/31 00:42:03;;;;;;;3.13;0.55;;;;;;;;;;5020548;28;20398;-79
2022/08/31 00:44:29;;;;;;;1.30;0.70;;;;;;;;;;5052746;28;20054;-80
2022/08/31 00:46:55;;;;;;;1.10;0.68;;;;;;;;;;5010524;28;20049;-79
2022/08/31 00:49:25;;;;;;;0.73;0.57;;;;;;;;;;5027759;28;20045;-80
2022/08/31 00:51:56;;;;;;;1.38;0.70;;;;;;;;;;5052469;28;20554;-79
2022/08/31 00:54:25;;;;;;;1.45;0.75;;;;;;;;;;5022581;28;20049;-79
2022/08/31 00:56:51;;;;;;;2.55;0.65;;;;;;;;;;5006370;28;20144;-79
2022/08/31 00:59:19;;;;;;;2.95;0.60;;;;;;;;;;5013661;28;20128;-79
2022/08/31 01:01:45;;;;;;;3.10;0.63;;;;;;;;;;5050811;28;20037;-79
2022/08/31 01:04:11;;;;;;;1.85;0.70;;;;;;;;;;5021252;28;20033;-79
2022/08/31 01:06:38;;;;;;;3.15;0.70;;;;;;;;;;5031061;28;20072;-79
2022/08/31 01:09:06;;;;;;;1.05;0.70;;;;;;;;;;5024660;28;20041;-79
2022/08/31 01:11:33;;;;;;;1.30;0.70;;;;;;;;;;5023966;28;20601;-79
2022/08/31 01:13:59;;;;;;;1.85;0.70;;;;;;;;;;5040184;28;20045;-79
2022/08/31 01:16:27;;;;;;;1.40;0.50;;;;;;;;;;5022526;28;20033;-79
2022/08/31 01:18:55;;;;;;;0.55;0.55;;;;;;;;;;5039569;28;20095;-79
2022/08/31 01:21:27;;;;;;;1.02;0.57;;;;;;;;;;5030653;28;20049;-79
2022/08/31 01:23:54;;;;;;;0.82;0.77;;;;;;;;;;5030819;28;20041;-79
2022/08/31 01:26:23;;;;;;;0.77;0.50;;;;;;;;;;5021723;28;20041;-79
2022/08/31 01:28:50;;;;;;;1.48;0.77;;;;;;;;;;5056280;28;20506;-79
2022/08/31 01:31:21;;;;;;;1.48;0.40;;;;;;;;;;5059321;28;20033;-79
2022/08/31 01:33:48;;;;;;;1.25;0.60;;;;;;;;;;5023162;28;20080;-79
2022/08/31 01:36:15;;;;;;;0.70;0.60;;;;;;;;;;5023836;28;20120;-79
2022/08/31 01:38:41;;;;;;;0.98;0.30;;;;;;;;;;5026255;28;20045;-79
2022/08/31 01:41:07;;;;;;;2.50;0.40;;;;;;;;;;5058018;28;20503;-79
2022/08/31 01:43:34;;;;;;;2.03;0.65;;;;;;;;;;5032494;28;20540;-79
2022/08/31 01:46:04;;;;;;;0.70;0.52;;;;;;;;;;5047293;28;20145;-79
2022/08/31 01:48:31;;;;;;;0.50;0.50;;;;;;;;;;5061217;28;20045;-79
2022/08/31 01:50:57;;;;;;;2.95;0.60;;;;;;;;;;5030061;28;20120;-79
2022/08/31 01:53:23;;;;;;;1.38;0.88;;;;;;;;;;5043544;28;20136;-79
2022/08/31 01:55:49;;;;;;;0.75;0.57;;;;;;;;;;5036554;28;20051;-79
2022/08/31 01:58:16;;;;;;;1.20;0.50;;;;;;;;;;5035461;28;20386;-79
2022/08/31 02:00:42;;;;;;;1.05;0.60;;;;;;;;;;5033966;28;20044;-79
2022/08/31 02:03:09;;;;;;;0.50;0.47;;;;;;;;;;5034853;28;20040;-79
2022/08/31 02:05:36;;;;;;;1.20;0.60;;;;;;;;;;5035439;28;20119;-79
2022/08/31 02:08:03;;;;;;;0.75;0.50;;;;;;;;;;5035278;28;20043;-79
2022/08/31 02:10:30;;;;;;;0.70;0.50;;;;;;;;;;5044638;28;20073;-79
2022/08/31 02:12:56;;;;;;;1.08;0.60;;;;;;;;;;5044492;28;20052;-79
2022/08/31 02:15:23;;;;;;;2.13;0.75;;;;;;;;;;5034099;28;20446;-79
2022/08/31 02:17:49;;;;;;;1.83;0.30;;;;;;;;;;5028256;28;20068;-79
2022/08/31 02:20:16;;;;;;;2.42;0.60;;;;;;;;;;5043607;28;20044;-79
2022/08/31 02:22:43;;;;;;;2.05;0.60;;;;;;;;;;5043758;28;20485;-79
2022/08/31 02:25:10;;;;;;;1.70;0.88;;;;;;;;;;5024824;28;20516;-79
2022/08/31 02:27:37;;;;;;;0.70;0.50;;;;;;;;;;5035788;28;20068;-79
2022/08/31 02:30:07;;;;;;;1.38;0.68;;;;;;;;;;5035002;28;20052;-79
2022/08/31 02:32:33;;;;;;;0.98;0.50;;;;;;;;;;5025745;28;20072;-79
2022/08/31 02:34:59;;;;;;;0.47;0.47;;;;;;;;;;5027626;28;20489;-79
2022/08/31 02:37:26;;;;;;;1.27;0.60;;;;;;;;;;5059279;28;20686;-79
2022/08/31 02:39:52;;;;;;;1.15;0.60;;;;;;;;;;5027246;28;20532;-79
2022/08/31 02:42:18;;;;;;;0.85;0.57;;;;;;;;;;5043280;28;20550;-79
2022/08/31 02:44:44;;;;;;;0.90;0.60;;;;;;;;;;5015761;28;20057;-79
2022/08/31 02:47:10;;;;;;;1.45;0.60;;;;;;;;;;5007444;28;20061;-79
2022/08/31 02:49:36;;;;;;;0.80;0.47;;;;;;;;;;5021664;28;20406;-79
2022/08/31 02:52:02;;;;;;;1.65;0.60;;;;;;;;;;5007025;28;20041;-79
2022/08/31 02:54:28;;;;;;;1.02;0.50;;;;;;;;;;5015387;28;20124;-79
2022/08/31 02:56:55;;;;;;;1.75;0.60;;;;;;;;;;5007001;28;20041;-79
2022/08/31 02:59:21;;;;;;;1.33;0.63;;;;;;;;;;5015101;28;20076;-79
2022/08/31 03:01:47;;;;;;;1.05;0.70;;;;;;;;;;5014285;28;20037;-79
2022/08/31 03:04:14;;;;;;;2.47;0.88;;;;;;;;;;5014411;28;20041;-79
2022/08/31 03:06:40;;;;;;;1.80;0.60;;;;;;;;;;5021354;28;20048;-79
2022/08/31 03:09:06;;;;;;;0.68;0.60;;;;;;;;;;4991566;28;20504;-79
2022/08/31 03:11:32;;;;;;;0.77;0.60;;;;;;;;;;5024788;28;20041;-79
2022/08/31 03:13:58;;;;;;;2.08;1.10;;;;;;;;;;5024790;28;20059;-79
2022/08/31 03:16:24;;;;;;;1.08;0.57;;;;;;;;;;5004978;28;20037;-79
2022/08/31 03:18:51;;;;;;;0.85;0.63;;;;;;;;;;5023845;28;20092;-79
2022/08/31 03:21:17;;;;;;;1.10;0.50;;;;;;;;;;5021933;28;20584;-79
2022/08/31 03:23:43;;;;;;;1.50;0.70;;;;;;;;;;5006973;28;20076;-79
2022/08/31 03:26:09;;;;;;;2.55;0.57;;;;;;;;;;5008041;28;20467;-79
2022/08/31 03:28:36;;;;;;;1.95;1.00;;;;;;;;;;5012647;28;20037;-79
2022/08/31 03:31:05;;;;;;;1.95;0.63;;;;;;;;;;5003088;28;20068;-79
2022/08/31 03:33:31;;;;;;;1.20;0.70;;;;;;;;;;5003084;28;20037;-79
2022/08/31 03:35:58;;;;;;;1.88;0.90;;;;;;;;;;5021664;28;20465;-79
2022/08/31 03:38:24;;;;;;;1.00;0.88;;;;;;;;;;5004249;28;20140;-79
2022/08/31 03:40:50;;;;;;;2.00;0.90;;;;;;;;;;5006805;28;20041;-79
2022/08/31 03:43:17;;;;;;;1.35;0.60;;;;;;;;;;5023738;28;20381;-79
2022/08/31 03:45:43;;;;;;;2.60;0.70;;;;;;;;;;5041982;28;20089;-79
2022/08/31 03:48:10;;;;;;;1.95;0.68;;;;;;;;;;5033659;28;20120;-78
2022/08/31 03:50:36;;;;;;;0.90;0.68;;;;;;;;;;5025233;28;20044;-79
2022/08/31 03:53:03;;;;;;;1.45;0.80;;;;;;;;;;5034549;28;20067;-79
2022/08/31 03:55:32;;;;;;;1.10;0.73;;;;;;;;;;5057091;28;20048;-79
2022/08/31 03:57:59;;;;;;;1.35;0.77;;;;;;;;;;5031976;28;20041;-79
2022/08/31 04:00:26;;;;;;;1.42;0.82;;;;;;;;;;5044496;28;20044;-79
2022/08/31 04:02:52;;;;;;;3.88;0.60;;;;;;;;;;5042359;28;20037;-79
2022/08/31 04:05:20;;;;;;;1.42;0.50;;;;;;;;;;5032283;28;20143;-79
2022/08/31 04:07:46;;;;;;;3.80;1.50;;;;;;;;;;5040982;28;20079;-80
2022/08/31 04:10:13;;;;;;;1.70;0.70;;;;;;;;;;5036613;28;20323;-79
2022/08/31 04:12:39;;;;;;;1.20;0.90;;;;;;;;;;5040766;28;20043;-79
2022/08/31 04:15:06;;;;;;;1.80;0.90;;;;;;;;;;5030223;28;20525;-80
2022/08/31 04:17:33;;;;;;;1.33;0.70;;;;;;;;;;5026260;28;20064;-79
2022/08/31 04:19:59;;;;;;;1.23;0.60;;;;;;;;;;5030441;28;20449;-80
2022/08/31 04:22:25;;;;;;;1.35;0.70;;;;;;;;;;5030583;28;20040;-79
2022/08/31 04:24:51;;;;;;;2.30;0.80;;;;;;;;;;5038542;28;20045;-79
2022/08/31 04:27:17;;;;;;;1.65;0.98;;;;;;;;;;5030396;28;20048;-79
2022/08/31 04:29:43;;;;;;;1.65;0.90;;;;;;;;;;5044055;28;20044;-79
2022/08/31 04:32:09;;;;;;;1.58;0.85;;;;;;;;;;5045948;28;20036;-80
2022/08/31 04:34:36;;;;;;;1.63;0.93;;;;;;;;;;5026589;28;20124;-80
2022/08/31 04:37:02;;;;;;;0.85;0.60;;;;;;;;;;5028527;28;20040;-83
2022/08/31 04:39:28;;;;;;;1.35;1.02;;;;;;;;;;5041924;28;20135;-83
2022/08/31 04:41:54;;;;;;;6.18;1.67;;;;;;;;;;5026404;28;20040;-83
2022/08/31 04:44:20;;;;;;;3.50;0.95;;;;;;;;;;5033360;28;20053;-82
2022/08/31 04:46:46;;;;;;;2.38;0.90;;;;;;;;;;5045384;28;20106;-83
2022/08/31 04:49:14;;;;;;;1.38;0.90;;;;;;;;;;5021695;28;20037;-83
2022/08/31 04:51:40;;;;;;;1.75;1.02;;;;;;;;;;5014292;28;20126;-80
2022/08/31 04:54:07;;;;;;;2.53;1.08;;;;;;;;;;5022698;28;20041;-80
2022/08/31 04:56:35;;;;;;;2.55;0.70;;;;;;;;;;5017710;28;20045;-80
2022/08/31 04:59:02;;;;;;;1.90;1.10;;;;;;;;;;5004045;28;20347;-80
2022/08/31 05:01:31;;;;;;;2.03;1.08;;;;;;;;;;5012516;28;20036;-79
2022/08/31 05:03:57;;;;;;;4.80;1.20;;;;;;;;;;5037748;28;20075;-80
2022/08/31 05:06:25;;;;;;;2.75;0.98;;;;;;;;;;5014683;28;20051;-79
2022/08/31 05:08:52;;;;;;;1.25;0.85;;;;;;;;;;5025462;28;20449;-79
2022/08/31 05:11:20;;;;;;;2.97;0.95;;;;;;;;;;4998618;28;20037;-80
2022/08/31 05:13:46;;;;;;;3.17;0.88;;;;;;;;;;5046687;28;20076;-80
2022/08/31 05:16:14;;;;;;;4.15;1.52;;;;;;;;;;5014772;28;20042;-80
2022/08/31 05:18:42;;;;;;;1.73;1.00;;;;;;;;;;5024346;28;20029;-79
2022/08/31 05:21:16;;;;;;;2.15;1.13;;;;;;;;;;5005954;28;20033;-83
2022/08/31 05:23:45;;;;;;;2.17;0.70;;;;;;;;;;5024791;28;20045;-83
2022/08/31 05:26:16;;;;;;;1.45;1.00;;;;;;;;;;5000406;28;20030;-82
2022/08/31 05:28:42;;;;;;;2.25;1.45;;;;;;;;;;5016493;28;20207;-81
2022/08/31 05:31:08;;;;;;;1.35;0.88;;;;;;;;;;5037483;28;20040;-83
2022/08/31 05:33:34;;;;;;;2.33;1.20;;;;;;;;;;5003104;28;20179;-82
2022/08/31 05:36:01;;;;;;;1.67;0.80;;;;;;;;;;5042344;28;20328;-82
2022/08/31 05:38:27;;;;;;;1.25;0.90;;;;;;;;;;5021422;28;20041;-82
2022/08/31 05:40:54;;;;;;;3.50;1.27;;;;;;;;;;5014215;28;20038;-82
2022/08/31 05:43:21;;;;;;;1.55;1.05;;;;;;;;;;4999867;28;20500;-87
2022/08/31 05:45:47;;;;;;;2.60;1.30;;;;;;;;;;5034705;28;20131;-81
2022/08/31 05:48:14;;;;;;;1.38;1.05;;;;;;;;;;5046205;28;20099;-83
2022/08/31 05:50:40;;;;;;;1.48;0.93;;;;;;;;;;5030902;28;20151;-88
2022/08/31 05:53:06;;;;;;;1.35;0.90;;;;;;;;;;5046985;28;20047;-85
2022/08/31 05:55:32;;;;;;;1.02;0.80;;;;;;;;;;5020883;28;20044;-86
2022/08/31 05:57:59;;;;;;;4.07;1.00;;;;;;;;;;5057980;28;20472;-86
2022/08/31 06:00:26;;;;;;;3.25;1.13;;;;;;;;;;5043731;28;20899;-86
2022/08/31 06:02:52;;;;;;;4.13;1.17;;;;;;;;;;5060439;28;20037;-86
2022/08/31 06:05:18;;;;;;;1.88;0.90;;;;;;;;;;5038070;28;20041;-86
2022/08/31 06:07:47;;;;;;;1.65;1.00;;;;;;;;;;5037202;28;20520;-87
2022/08/31 06:10:14;;;;;;;1.02;0.82;;;;;;;;;;5036264;28;20068;-91
2022/08/31 06:12:41;;;;;;;4.22;1.48;;;;;;;;;;5020494;28;20045;-89
2022/08/31 06:15:08;;;;;;;6.35;2.30;;;;;;;;;;5029279;28;20071;-88
2022/08/31 06:17:34;;;;;;;1.35;0.90;;;;;;;;;;5036558;28;20554;-90
2022/08/31 06:20:01;;;;;;;3.28;1.10;;;;;;;;;;5019368;28;20047;-91
2022/08/31 06:22:28;;;;;;;2.40;1.00;;;;;;;;;;5028760;28;20113;-86
2022/08/31 06:24:54;;;;;;;2.08;1.23;;;;;;;;;;5034154;28;20044;-86
2022/08/31 06:27:20;;;;;;;1.63;0.90;;;;;;;;;;5036876;28;20598;-86
2022/08/31 06:29:48;;;;;;;3.22;1.30;;;;;;;;;;4993740;28;20044;-85
2022/08/31 06:32:14;;;;;;;1.77;1.02;;;;;;;;;;5034738;28;20059;-86
2022/08/31 06:34:41;;;;;;;2.15;0.90;;;;;;;;;;5030827;28;20207;-87
2022/08/31 06:37:08;;;;;;;1.63;1.23;;;;;;;;;;5029621;28;20128;-86
2022/08/31 06:39:34;;;;;;;1.92;0.95;;;;;;;;;;5030363;28;20094;-86
2022/08/31 06:42:02;;;;;;;1.50;0.90;;;;;;;;;;5036159;28;20941;-86
2022/08/31 06:44:28;;;;;;;1.30;0.98;;;;;;;;;;5027190;28;20044;-85
2022/08/31 06:46:55;;;;;;;9.77;1.95;;;;;;;;;;5009633;28;20101;-85
2022/08/31 06:49:21;;;;;;;1.40;0.85;;;;;;;;;;5009118;28;20037;-85
2022/08/31 06:51:48;;;;;;;2.30;1.23;;;;;;;;;;5033705;28;20059;-86
2022/08/31 06:54:15;;;;;;;1.67;1.10;;;;;;;;;;5043309;28;20048;-85
2022/08/31 06:56:41;;;;;;;1.25;0.90;;;;;;;;;;5035093;28;20560;-86
2022/08/31 06:59:08;;;;;;;2.22;0.90;;;;;;;;;;5002886;28;20060;-86
2022/08/31 07:01:35;;;;;;;1.45;1.02;;;;;;;;;;5035155;28;20151;-86
2022/08/31 07:04:02;;;;;;;1.35;0.80;;;;;;;;;;5029639;28;20040;-84
2022/08/31 07:06:29;;;;;;;1.38;0.88;;;;;;;;;;5016429;28;20505;-83
2022/08/31 07:08:57;;;;;;;4.20;1.63;;;;;;;;;;5031022;28;20040;-84
2022/08/31 07:11:26;;;;;;;0.80;0.70;;;;;;;;;;5041967;28;20166;-84
2022/08/31 07:13:53;;;;;;;2.55;0.80;;;;;;;;;;5035817;28;20482;-85
2022/08/31 07:16:20;;;;;;;1.35;0.70;;;;;;;;;;5034516;28;20450;-85
2022/08/31 07:18:48;;;;;;;2.00;0.93;;;;;;;;;;5031273;28;20459;-85
2022/08/31 07:21:24;;;;;;;2.70;0.80;;;;;;;;;;5031871;28;20205;-84
2022/08/31 07:23:50;;;;;;;3.13;0.95;;;;;;;;;;5044125;28;20033;-86
2022/08/31 07:26:24;;;;;;;2.08;1.08;;;;;;;;;;5032853;28;20103;-84
2022/08/31 07:28:52;;;;;;;1.52;0.75;;;;;;;;;;5041017;28;20033;-83
2022/08/31 07:31:22;;;;;;;3.28;1.10;;;;;;;;;;5032802;28;20036;-84
2022/08/31 07:33:56;;;;;;;2.50;1.00;;;;;;;;;;5050575;28;20036;-83
2022/08/31 07:36:23;;;;;;;1.02;0.70;;;;;;;;;;5030172;28;20047;-83
2022/08/31 07:44:00;;;;;;;2.95;1.13;;;;;;;;;;5037833;28;20044;-83
2022/08/31 07:46:30;;;;;;;3.70;0.85;;;;;;;;;;5015115;28;20051;-82
2022/08/31 07:48:59;;;;;;;1.80;1.00;;;;;;;;;;5059230;28;20613;-83
2022/08/31 07:51:26;;;;;;;2.50;0.95;;;;;;;;;;5035042;28;20064;-83
2022/08/31 07:53:52;;;;;;;1.83;1.02;;;;;;;;;;5024599;28;20134;-82
2022/08/31 07:56:20;;;;;;;1.95;1.35;;;;;;;;;;5021236;28;20040;-82
2022/08/31 07:58:48;;;;;;;1.85;1.08;;;;;;;;;;5041647;28;20043;-82
2022/08/31 08:01:15;;;;;;;3.35;0.80;;;;;;;;;;5054184;28;20037;-82
2022/08/31 08:03:43;;;;;;;1.13;0.88;;;;;;;;;;5045939;28;20044;-83
2022/08/31 08:06:11;;;;;;;1.65;0.95;;;;;;;;;;5025161;28;20028;-83
2022/08/31 08:08:39;;;;;;;1.20;0.90;;;;;;;;;;5056376;28;20076;-83
2022/08/31 08:11:05;;;;;;;1.30;0.68;;;;;;;;;;5024637;28;20123;-83
2022/08/31 08:13:31;;;;;;;1.08;0.68;;;;;;;;;;5027954;28;20040;-83
2022/08/31 08:15:58;;;;;;;2.15;0.70;;;;;;;;;;5061206;28;20060;-83
2022/08/31 08:18:24;;;;;;;2.35;0.80;;;;;;;;;;5009910;28;20041;-83
2022/08/31 08:20:51;;;;;;;2.75;0.85;;;;;;;;;;5009457;28;20044;-82
2022/08/31 08:23:18;;;;;;;0.77;0.60;;;;;;;;;;5057791;28;20515;-83
2022/08/31 08:25:44;;;;;;;5.00;1.35;;;;;;;;;;5000629;28;20049;-83
2022/08/31 08:28:16;;;;;;;1.65;0.80;;;;;;;;;;5044116;28;20070;-82
2022/08/31 08:30:45;;;;;;;5.05;0.93;;;;;;;;;;5047383;28;20048;-82
2022/08/31 08:33:12;;;;;;;1.77;1.23;;;;;;;;;;5011472;28;20124;-81
2022/08/31 08:35:39;;;;;;;1.30;0.57;;;;;;;;;;5042424;28;20128;-81
2022/08/31 08:38:06;;;;;;;4.25;0.80;;;;;;;;;;5034379;28;20044;-82
2022/08/31 08:40:36;;;;;;;1.58;0.88;;;;;;;;;;5033189;28;20041;-82
2022/08/31 08:43:04;;;;;;;2.08;0.75;;;;;;;;;;5042427;28;20075;-84
2022/08/31 08:45:31;;;;;;;4.00;1.20;;;;;;;;;;5032657;28;20389;-82
2022/08/31 08:47:58;;;;;;;1.70;0.80;;;;;;;;;;5032229;28;20367;-83
2022/08/31 08:50:27;;;;;;;2.08;1.15;;;;;;;;;;5042429;28;20123;-83
2022/08/31 08:52:54;;;;;;;3.00;0.95;;;;;;;;;;5042629;28;20037;-85
2022/08/31 08:55:22;;;;;;;1.85;0.80;;;;;;;;;;5059371;28;20037;-87
2022/08/31 08:57:50;;;;;;;2.78;0.50;;;;;;;;;;5058817;28;20522;-87
2022/08/31 09:00:21;;;;;;;4.13;0.70;;;;;;;;;;5059478;28;20041;-87
2022/08/31 09:02:59;;;;;;;1.52;0.98;;;;;;;;;;5009699;28;20132;-86
2022/08/31 09:05:30;;;;;;;1.15;0.70;;;;;;;;;;5040269;28;20041;-87
2022/08/31 09:08:09;;;;;;;1.05;0.68;;;;;;;;;;5056558;28;20485;-87
2022/08/31 09:10:49;;;;;;;1.45;0.70;;;;;;;;;;5032253;28;20037;-86
2022/08/31 09:13:35;;;;;;;2.20;1.20;;;;;;;;;;5026278;28;20123;-87
2022/08/31 09:16:20;;;;;;;1.63;1.00;;;;;;;;;;5045446;28;20048;-86
2022/08/31 09:18:51;;;;;;;1.63;0.90;;;;;;;;;;5034761;28;20045;-85
2022/08/31 09:21:22;;;;;;;1.42;1.02;;;;;;;;;;5037721;28;20634;-85
2022/08/31 09:23:54;;;;;;;2.75;0.90;;;;;;;;;;5037544;28;20130;-85
2022/08/31 09:26:26;;;;;;;1.33;0.73;;;;;;;;;;5063702;28;20032;-86
2022/08/31 09:28:53;;;;;;;2.17;0.90;;;;;;;;;;5053152;28;20032;-86
2022/08/31 09:31:39;;;;;;;3.22;0.90;;;;;;;;;;5043641;28;20275;-86
2022/08/31 09:34:08;;;;;;;2.30;1.00;;;;;;;;;;5037229;28;20044;-85
2022/08/31 09:36:39;;;;;;;3.78;0.88;;;;;;;;;;5048067;28;21051;-86
2022/08/31 09:39:16;;;;;;;1.23;0.97;;;;;;;;;;5042519;28;20041;-86
2022/08/31 09:41:43;;;;;;;3.05;1.23;;;;;;;;;;5045517;28;20310;-85
2022/08/31 09:44:17;;;;;;;2.70;0.88;;;;;;;;;;5046543;28;20060;-86
2022/08/31 09:46:52;;;;;;;1.85;0.95;;;;;;;;;;5035878;28;20055;-85
2022/08/31 09:49:37;;;;;;;2.10;1.00;;;;;;;;;;5029339;28;20048;-86
2022/08/31 09:52:16;;;;;;;2.25;0.95;;;;;;;;;;5045258;28;20049;-86
2022/08/31 09:57:49;;;;;;;0.57;0.52;;;;;;;;;;5059082;28;20140;-86
2022/08/31 10:00:24;;;;;;;2.40;0.88;;;;;;;;;;5028110;28;20106;-86
2022/08/31 10:02:55;;;;;;;1.75;1.00;;;;;;;;;;5036123;28;20048;-86
2022/08/31 10:05:42;;;;;;;1.90;0.70;;;;;;;;;;5035976;28;20358;-86
2022/08/31 10:08:27;;;;;;;1.27;0.93;;;;;;;;;;5037664;28;20379;-86
2022/08/31 10:11:02;;;;;;;1.42;0.60;;;;;;;;;;5035831;28;20043;-86
2022/08/31 10:13:38;;;;;;;2.30;0.82;;;;;;;;;;5043945;28;20132;-86
2022/08/31 10:16:24;;;;;;;0.73;0.73;;;;;;;;;;5036658;28;20048;-86
2022/08/31 10:18:51;;;;;;;0.85;0.63;;;;;;;;;;5008213;28;20115;-85
2022/08/31 10:21:20;;;;;;;2.22;0.73;;;;;;;;;;5061136;28;20040;-86
2022/08/31 10:23:55;;;;;;;1.35;0.77;;;;;;;;;;5029676;28;20037;-86
2022/08/31 10:26:35;;;;;;;1.67;0.63;;;;;;;;;;5033828;28;20107;-86
2022/08/31 10:29:05;;;;;;;2.17;0.63;;;;;;;;;;5030517;28;20116;-85
2022/08/31 10:31:44;;;;;;;4.10;1.05;;;;;;;;;;5019697;28;20044;-86
2022/08/31 10:37:18;;;;;;;1.35;0.80;;;;;;;;;;5050994;28;20122;-85
2022/08/31 10:39:47;;;;;;;1.10;0.63;;;;;;;;;;5035260;28;20048;-85
2022/08/31 10:42:28;;;;;;;2.20;0.90;;;;;;;;;;5035450;28;20596;-85
2022/08/31 10:45:09;;;;;;;1.30;0.68;;;;;;;;;;5045039;28;20128;-85
2022/08/31 10:47:40;;;;;;;1.70;0.90;;;;;;;;;;5029002;28;20053;-84
2022/08/31 10:50:08;;;;;;;2.03;0.80;;;;;;;;;;5062216;28;20048;-83
2022/08/31 10:52:41;;;;;;;1.60;0.82;;;;;;;;;;5027438;28;20048;-84
2022/08/31 10:55:17;;;;;;;3.35;0.80;;;;;;;;;;5060331;28;20366;-83
2022/08/31 10:57:43;;;;;;;1.23;0.80;;;;;;;;;;5050944;28;20040;-84
2022/08/31 11:03:00;;;;;;;1.40;0.55;;;;;;;;;;5036789;28;20449;-84
2022/08/31 11:05:28;;;;;;;1.67;0.85;;;;;;;;;;5037698;28;20476;-84
2022/08/31 11:08:24;;;;;;;4.05;1.00;;;;;;;;;;5037085;28;20123;-85
2022/08/31 11:10:51;;;;;;;2.13;0.80;;;;;;;;;;4983886;28;20411;-84
2022/08/31 11:13:30;;;;;;;2.15;0.60;;;;;;;;;;5043242;28;20044;-85
2022/08/31 11:16:08;;;;;;;1.70;0.73;;;;;;;;;;5034395;28;20044;-84
2022/08/31 11:18:53;;;;;;;4.43;1.02;;;;;;;;;;5059131;28;20044;-84
2022/08/31 11:21:34;;;;;;;2.80;1.02;;;;;;;;;;5034271;28;20044;-86
2022/08/31 11:24:06;;;;;;;0.88;0.55;;;;;;;;;;5034963;28;20036;-86
2022/08/31 11:26:51;;;;;;;0.65;0.60;;;;;;;;;;5036437;28;20040;-85
2022/08/31 11:29:27;;;;;;;1.15;0.68;;;;;;;;;;5026856;28;20076;-86
2022/08/31 11:31:59;;;;;;;1.38;0.70;;;;;;;;;;5032796;28;20041;-86
2022/08/31 11:34:27;;;;;;;3.92;0.65;;;;;;;;;;5057371;28;20036;-87
2022/08/31 11:37:02;;;;;;;0.88;0.50;;;;;;;;;;5020089;28;20048;-86
2022/08/31 11:39:34;;;;;;;1.65;0.73;;;;;;;;;;5023311;28;20055;-86
2022/08/31 11:42:05;;;;;;;0.80;0.60;;;;;;;;;;5059181;28;20067;-86
2022/08/31 11:44:32;;;;;;;2.75;0.70;;;;;;;;;;5060737;28;20095;-86
2022/08/31 11:47:18;;;;;;;3.13;0.80;;;;;;;;;;5059678;28;20131;-86
2022/08/31 11:49:49;;;;;;;1.10;0.73;;;;;;;;;;5033293;28;20033;-86
2022/08/31 11:52:23;;;;;;;1.38;0.90;;;;;;;;;;5033343;28;20048;-87
2022/08/31 11:54:49;;;;;;;0.82;0.50;;;;;;;;;;5058580;28;20055;-87
2022/08/31 11:57:26;;;;;;;1.58;0.63;;;;;;;;;;5033949;28;20132;-87
2022/08/31 11:59:53;;;;;;;0.98;0.50;;;;;;;;;;5044776;28;20584;-86
2022/08/31 12:02:19;;;;;;;2.20;0.68;;;;;;;;;;5028881;28;20083;-87
2022/08/31 12:04:46;;;;;;;3.13;0.90;;;;;;;;;;5033738;28;20512;-87
2022/08/31 12:07:23;;;;;;;1.58;0.95;;;;;;;;;;5050456;28;20051;-87
2022/08/31 12:10:08;;;;;;;2.03;0.88;;;;;;;;;;5066979;28;20486;-86
2022/08/31 12:12:34;;;;;;;3.20;0.93;;;;;;;;;;5041195;28;20094;-87
2022/08/31 12:15:39;;;;;;;0.60;0.60;;;;;;;;;;5034034;28;20115;-86
2022/08/31 12:18:05;;;;;;;2.08;1.02;;;;;;;;;;4992704;28;20033;-86
2022/08/31 12:23:54;;;;;;;2.28;1.00;;;;;;;;;;5027576;28;20461;-82
2022/08/31 12:26:37;;;;;;;1.10;0.80;;;;;;;;;;5048622;28;20044;-86
2022/08/31 12:29:09;;;;;;;2.17;0.77;;;;;;;;;;5029173;28;20043;-86
2022/08/31 12:31:37;;;;;;;4.63;1.10;;;;;;;;;;5027183;28;20047;-86
2022/08/31 12:34:12;;;;;;;1.52;0.80;;;;;;;;;;5044917;28;20041;-86
2022/08/31 12:36:38;;;;;;;2.55;1.00;;;;;;;;;;5026020;28;20076;-86
2022/08/31 12:39:05;;;;;;;1.67;0.77;;;;;;;;;;5041363;28;20087;-86
2022/08/31 12:41:32;;;;;;;2.67;0.80;;;;;;;;;;5034617;28;20037;-86
2022/08/31 12:43:58;;;;;;;1.70;1.00;;;;;;;;;;5030979;28;20049;-86
2022/08/31 12:47:03;;;;;;;1.55;0.80;;;;;;;;;;5040689;28;20184;-87
2022/08/31 12:49:34;;;;;;;2.90;1.00;;;;;;;;;;5024511;28;20052;-83
2022/08/31 12:52:19;;;;;;;2.38;1.27;;;;;;;;;;5043957;28;20040;-83
2022/08/31 12:54:57;;;;;;;3.65;1.00;;;;;;;;;;5011908;28;20033;-84
2022/08/31 12:57:39;;;;;;;3.85;1.08;;;;;;;;;;5059921;28;20076;-84
2022/08/31 13:00:09;;;;;;;2.08;0.80;;;;;;;;;;5034103;28;20136;-84
2022/08/31 13:02:40;;;;;;;2.85;1.00;;;;;;;;;;5062297;28;20639;-84
2022/08/31 13:05:20;;;;;;;2.20;1.10;;;;;;;;;;5035168;28;20488;-83
2022/08/31 13:07:46;;;;;;;1.25;0.90;;;;;;;;;;5027601;28;20069;-84
2022/08/31 13:10:14;;;;;;;1.35;1.00;;;;;;;;;;5034895;28;20124;-84
2022/08/31 13:12:47;;;;;;;1.75;0.82;;;;;;;;;;5012307;28;20045;-83
2022/08/31 13:15:24;;;;;;;2.08;0.95;;;;;;;;;;5025990;28;20159;-83
2022/08/31 13:17:52;;;;;;;1.80;1.00;;;;;;;;;;5026309;28;20556;-84
2022/08/31 13:20:19;;;;;;;4.45;1.00;;;;;;;;;;5030974;28;20399;-84
2022/08/31 13:22:54;;;;;;;1.73;1.00;;;;;;;;;;5031821;28;20029;-84
2022/08/31 13:25:34;;;;;;;1.45;1.00;;;;;;;;;;5039463;28;20049;-83
2022/08/31 13:28:01;;;;;;;2.17;0.88;;;;;;;;;;5045613;28;20381;-84
2022/08/31 13:30:30;;;;;;;6.43;0.82;;;;;;;;;;5015907;28;20129;-84
2022/08/31 13:32:56;;;;;;;1.48;0.90;;;;;;;;;;5050056;28;20084;-83
2022/08/31 13:35:25;;;;;;;1.48;0.63;;;;;;;;;;5016164;28;20032;-83
2022/08/31 13:38:04;;;;;;;1.83;0.77;;;;;;;;;;5047748;28;20064;-83
2022/08/31 13:40:36;;;;;;;2.58;1.00;;;;;;;;;;5029177;28;20120;-83
2022/08/31 13:43:02;;;;;;;3.85;1.10;;;;;;;;;;5036849;28;20052;-86
2022/08/31 13:45:56;;;;;;;3.60;0.75;;;;;;;;;;5029263;28;20128;-86
2022/08/31 13:48:33;;;;;;;2.25;0.70;;;;;;;;;;5030158;28;20080;-86
2022/08/31 13:51:01;;;;;;;1.55;0.70;;;;;;;;;;5042939;28;20456;-86
2022/08/31 13:53:38;;;;;;;4.28;0.70;;;;;;;;;;5057072;28;20521;-85
2022/08/31 13:59:25;;;;;;;2.00;0.88;;;;;;;;;;5057929;28;20267;-85
2022/08/31 14:02:02;;;;;;;1.38;0.70;;;;;;;;;;5057668;28;20132;-86
2022/08/31 14:04:37;;;;;;;5.72;1.90;;;;;;;;;;5007901;28;20045;-86
2022/08/31 14:07:04;;;;;;;2.65;1.20;;;;;;;;;;5023796;28;20072;-87
2022/08/31 14:09:30;;;;;;;11.23;1.77;;;;;;;;;;5016196;28;20037;-82
2022/08/31 14:12:04;;;;;;;3.08;1.20;;;;;;;;;;5026267;28;20064;-86
2022/08/31 14:14:39;;;;;;;1.20;0.80;;;;;;;;;;5055536;28;20044;-86
2022/08/31 14:17:07;;;;;;;3.50;1.10;;;;;;;;;;5013621;28;20060;-85
2022/08/31 14:19:38;;;;;;;5.13;0.93;;;;;;;;;;5031300;28;20068;-85
2022/08/31 14:22:44;;;;;;;7.15;1.13;;;;;;;;;;5036818;28;20084;-85
2022/08/31 14:25:11;;;;;;;1.67;0.80;;;;;;;;;;5024441;28;20045;-84
2022/08/31 14:27:40;;;;;;;2.90;1.10;;;;;;;;;;5014886;28;20037;-85
2022/08/31 14:30:08;;;;;;;1.23;0.90;;;;;;;;;;5030129;28;20042;-85
2022/08/31 14:32:34;;;;;;;2.65;1.23;;;;;;;;;;5009121;28;20048;-85
2022/08/31 14:35:01;;;;;;;1.42;0.70;;;;;;;;;;5015604;28;20052;-85
2022/08/31 14:37:29;;;;;;;2.38;0.60;;;;;;;;;;5024628;28;20137;-85
2022/08/31 14:40:03;;;;;;;1.92;1.25;;;;;;;;;;5011171;28;20042;-85
2022/08/31 14:42:31;;;;;;;2.03;1.15;;;;;;;;;;5042527;28;20045;-85
2022/08/31 14:44:58;;;;;;;1.27;0.82;;;;;;;;;;5012937;28;20060;-84
2022/08/31 14:47:26;;;;;;;2.38;0.85;;;;;;;;;;5035589;28;20049;-86
2022/08/31 14:49:55;;;;;;;3.40;1.08;;;;;;;;;;5032899;28;20094;-84
2022/08/31 14:52:23;;;;;;;2.85;1.10;;;;;;;;;;5019114;28;20834;-85
2022/08/31 14:54:49;;;;;;;2.78;1.30;;;;;;;;;;5021727;28;20052;-86
2022/08/31 14:57:23;;;;;;;5.25;1.20;;;;;;;;;;5019468;28;20037;-85
2022/08/31 14:59:51;;;;;;;4.18;1.00;;;;;;;;;;5028470;28;20112;-86
2022/08/31 15:02:19;;;;;;;1.75;1.08;;;;;;;;;;5018076;28;20120;-88
2022/08/31 15:04:47;;;;;;;2.35;1.10;;;;;;;;;;5031016;28;20489;-87
2022/08/31 15:07:13;;;;;;;3.22;1.20;;;;;;;;;;5002430;28;20580;-86
2022/08/31 15:09:40;;;;;;;1.95;0.90;;;;;;;;;;5001473;28;20094;-87
2022/08/31 15:12:07;;;;;;;3.20;1.00;;;;;;;;;;5027806;28;20099;-87
2022/08/31 15:14:36;;;;;;;1.85;0.90;;;;;;;;;;5035077;28;20044;-87
2022/08/31 15:17:05;;;;;;;0.77;0.70;;;;;;;;;;5035021;28;20072;-87
2022/08/31 15:19:36;;;;;;;3.50;1.05;;;;;;;;;;5016123;28;20140;-87
2022/08/31 15:22:08;;;;;;;1.75;0.80;;;;;;;;;;5017919;28;20072;-87